sensor_id;sensor_type;location;lat;lon;timestamp;P1;durP1;ratioP1;P2;durP2;ratioP2
56122;SDS011;42426;46.104;19.656;2023-04-29T00:00:01;10.13;;;6.93;;
56122;SDS011;42426;46.104;19.656;2023-04-29T00:02:29;8.93;;;6.43;;
56122;SDS011;42426;46.104;19.656;2023-04-29T00:04:56;11.95;;;7.68;;
56122;SDS011;42426;46.104;19.656;2023-04-29T00:07:22;10.93;;;7.65;;
56122;SDS011;42426;46.104;19.656;2023-04-29T00:09:48;13.18;;;7.22;;
56122;SDS011;42426;46.104;19.656;2023-04-29T00:12:15;10.85;;;8.38;;
56122;SDS011;42426;46.104;19.656;2023-04-29T00:14:42;10.93;;;7.05;;
56122;SDS011;42426;46.104;19.656;2023-04-29T00:17:08;11.15;;;6.72;;
56122;SDS011;42426;46.104;19.656;2023-04-29T00:19:34;12.07;;;7.57;;
56122;SDS011;42426;46.104;19.656;2023-04-29T00:22:00;11.73;;;7.45;;
56122;SDS011;42426;46.104;19.656;2023-04-29T00:24:26;11.07;;;7.22;;
56122;SDS011;42426;46.104;19.656;2023-04-29T00:26:53;10.50;;;7.38;;
56122;SDS011;42426;46.104;19.656;2023-04-29T00:29:20;19.00;;;7.82;;
56122;SDS011;42426;46.104;19.656;2023-04-29T00:31:47;11.15;;;7.88;;
56122;SDS011;42426;46.104;19.656;2023-04-29T00:34:14;14.00;;;8.05;;
56122;SDS011;42426;46.104;19.656;2023-04-29T00:36:41;11.75;;;7.13;;
56122;SDS011;42426;46.104;19.656;2023-04-29T00:39:07;9.95;;;6.80;;
56122;SDS011;42426;46.104;19.656;2023-04-29T00:41:33;11.07;;;7.22;;
56122;SDS011;42426;46.104;19.656;2023-04-29T00:43:59;10.50;;;7.45;;
56122;SDS011;42426;46.104;19.656;2023-04-29T00:46:26;10.90;;;7.45;;
56122;SDS011;42426;46.104;19.656;2023-04-29T00:48:52;9.68;;;7.13;;
56122;SDS011;42426;46.104;19.656;2023-04-29T00:51:18;10.25;;;6.93;;
56122;SDS011;42426;46.104;19.656;2023-04-29T00:53:44;10.88;;;6.30;;
56122;SDS011;42426;46.104;19.656;2023-04-29T00:56:10;10.07;;;7.22;;
56122;SDS011;42426;46.104;19.656;2023-04-29T00:58:38;10.15;;;7.18;;
56122;SDS011;42426;46.104;19.656;2023-04-29T01:01:13;9.55;;;7.13;;
56122;SDS011;42426;46.104;19.656;2023-04-29T01:03:46;14.13;;;7.80;;
56122;SDS011;42426;46.104;19.656;2023-04-29T01:11:13;13.95;;;7.75;;
56122;SDS011;42426;46.104;19.656;2023-04-29T01:13:50;12.88;;;6.95;;
56122;SDS011;42426;46.104;19.656;2023-04-29T01:16:50;13.25;;;7.00;;
56122;SDS011;42426;46.104;19.656;2023-04-29T01:19:14;10.57;;;6.47;;
56122;SDS011;42426;46.104;19.656;2023-04-29T01:21:45;13.03;;;6.97;;
56122;SDS011;42426;46.104;19.656;2023-04-29T01:24:15;7.77;;;5.93;;
56122;SDS011;42426;46.104;19.656;2023-04-29T01:29:46;12.20;;;7.30;;
56122;SDS011;42426;46.104;19.656;2023-04-29T01:32:23;7.53;;;6.00;;
56122;SDS011;42426;46.104;19.656;2023-04-29T01:34:55;9.55;;;6.82;;
56122;SDS011;42426;46.104;19.656;2023-04-29T01:37:32;14.17;;;6.77;;
56122;SDS011;42426;46.104;19.656;2023-04-29T01:40:07;8.98;;;7.15;;
56122;SDS011;42426;46.104;19.656;2023-04-29T01:45:04;10.85;;;6.65;;
56122;SDS011;42426;46.104;19.656;2023-04-29T01:47:31;9.82;;;7.15;;
56122;SDS011;42426;46.104;19.656;2023-04-29T01:49:58;10.90;;;6.20;;
56122;SDS011;42426;46.104;19.656;2023-04-29T01:52:24;9.45;;;6.38;;
56122;SDS011;42426;46.104;19.656;2023-04-29T01:54:52;9.50;;;6.90;;
56122;SDS011;42426;46.104;19.656;2023-04-29T01:57:18;10.45;;;6.78;;
56122;SDS011;42426;46.104;19.656;2023-04-29T01:59:45;9.32;;;6.70;;
56122;SDS011;42426;46.104;19.656;2023-04-29T02:02:11;10.93;;;7.28;;
56122;SDS011;42426;46.104;19.656;2023-04-29T02:04:39;8.95;;;6.63;;
56122;SDS011;42426;46.104;19.656;2023-04-29T02:07:05;9.55;;;6.93;;
56122;SDS011;42426;46.104;19.656;2023-04-29T02:09:31;10.68;;;6.70;;
56122;SDS011;42426;46.104;19.656;2023-04-29T02:11:58;8.88;;;6.22;;
56122;SDS011;42426;46.104;19.656;2023-04-29T02:14:24;10.05;;;7.25;;
56122;SDS011;42426;46.104;19.656;2023-04-29T02:16:50;8.77;;;6.75;;
56122;SDS011;42426;46.104;19.656;2023-04-29T02:19:17;11.88;;;7.40;;
56122;SDS011;42426;46.104;19.656;2023-04-29T02:21:44;8.68;;;6.75;;
56122;SDS011;42426;46.104;19.656;2023-04-29T02:24:10;9.77;;;7.30;;
56122;SDS011;42426;46.104;19.656;2023-04-29T02:26:36;10.77;;;7.75;;
56122;SDS011;42426;46.104;19.656;2023-04-29T02:29:02;11.02;;;6.75;;
56122;SDS011;42426;46.104;19.656;2023-04-29T02:31:28;9.95;;;6.28;;
56122;SDS011;42426;46.104;19.656;2023-04-29T02:33:54;11.70;;;7.03;;
56122;SDS011;42426;46.104;19.656;2023-04-29T02:36:20;10.70;;;7.60;;
56122;SDS011;42426;46.104;19.656;2023-04-29T02:38:46;11.90;;;7.40;;
56122;SDS011;42426;46.104;19.656;2023-04-29T02:41:15;9.13;;;6.55;;
56122;SDS011;42426;46.104;19.656;2023-04-29T02:43:42;9.48;;;6.88;;
56122;SDS011;42426;46.104;19.656;2023-04-29T02:46:09;12.60;;;6.15;;
56122;SDS011;42426;46.104;19.656;2023-04-29T02:48:35;14.82;;;7.07;;
56122;SDS011;42426;46.104;19.656;2023-04-29T02:51:01;10.80;;;6.57;;
56122;SDS011;42426;46.104;19.656;2023-04-29T02:53:27;9.57;;;7.05;;
56122;SDS011;42426;46.104;19.656;2023-04-29T02:55:53;8.25;;;6.75;;
56122;SDS011;42426;46.104;19.656;2023-04-29T02:58:19;11.40;;;7.53;;
56122;SDS011;42426;46.104;19.656;2023-04-29T03:00:46;10.93;;;6.72;;
56122;SDS011;42426;46.104;19.656;2023-04-29T03:03:12;12.73;;;7.15;;
56122;SDS011;42426;46.104;19.656;2023-04-29T03:05:38;13.00;;;8.07;;
56122;SDS011;42426;46.104;19.656;2023-04-29T03:08:04;14.32;;;8.23;;
56122;SDS011;42426;46.104;19.656;2023-04-29T03:10:31;13.52;;;7.88;;
56122;SDS011;42426;46.104;19.656;2023-04-29T03:12:59;10.88;;;8.43;;
56122;SDS011;42426;46.104;19.656;2023-04-29T03:15:25;10.30;;;8.68;;
56122;SDS011;42426;46.104;19.656;2023-04-29T03:17:51;14.27;;;8.35;;
56122;SDS011;42426;46.104;19.656;2023-04-29T03:20:18;11.73;;;9.15;;
56122;SDS011;42426;46.104;19.656;2023-04-29T03:22:44;16.48;;;9.82;;
56122;SDS011;42426;46.104;19.656;2023-04-29T03:25:10;11.88;;;9.15;;
56122;SDS011;42426;46.104;19.656;2023-04-29T03:27:37;12.57;;;9.65;;
56122;SDS011;42426;46.104;19.656;2023-04-29T03:30:05;12.27;;;9.45;;
56122;SDS011;42426;46.104;19.656;2023-04-29T03:32:31;13.07;;;9.65;;
56122;SDS011;42426;46.104;19.656;2023-04-29T03:34:58;13.02;;;9.25;;
56122;SDS011;42426;46.104;19.656;2023-04-29T03:37:24;11.38;;;9.07;;
56122;SDS011;42426;46.104;19.656;2023-04-29T03:39:51;12.90;;;10.60;;
56122;SDS011;42426;46.104;19.656;2023-04-29T03:42:17;10.80;;;9.23;;
56122;SDS011;42426;46.104;19.656;2023-04-29T03:44:43;11.55;;;9.70;;
56122;SDS011;42426;46.104;19.656;2023-04-29T03:47:09;15.93;;;10.77;;
56122;SDS011;42426;46.104;19.656;2023-04-29T03:49:35;13.27;;;10.30;;
56122;SDS011;42426;46.104;19.656;2023-04-29T03:52:01;14.13;;;10.73;;
56122;SDS011;42426;46.104;19.656;2023-04-29T03:54:28;14.13;;;9.27;;
56122;SDS011;42426;46.104;19.656;2023-04-29T03:56:55;12.70;;;10.32;;
56122;SDS011;42426;46.104;19.656;2023-04-29T03:59:21;19.17;;;9.95;;
56122;SDS011;42426;46.104;19.656;2023-04-29T04:01:47;20.20;;;9.90;;
56122;SDS011;42426;46.104;19.656;2023-04-29T04:04:13;13.23;;;10.40;;
56122;SDS011;42426;46.104;19.656;2023-04-29T04:06:39;16.08;;;10.25;;
56122;SDS011;42426;46.104;19.656;2023-04-29T04:09:06;16.25;;;10.52;;
56122;SDS011;42426;46.104;19.656;2023-04-29T04:11:32;15.70;;;10.90;;
56122;SDS011;42426;46.104;19.656;2023-04-29T04:13:58;14.73;;;11.05;;
56122;SDS011;42426;46.104;19.656;2023-04-29T04:16:26;12.60;;;9.70;;
56122;SDS011;42426;46.104;19.656;2023-04-29T04:18:52;15.77;;;9.95;;
56122;SDS011;42426;46.104;19.656;2023-04-29T04:21:18;14.02;;;9.25;;
56122;SDS011;42426;46.104;19.656;2023-04-29T04:23:45;15.18;;;10.23;;
56122;SDS011;42426;46.104;19.656;2023-04-29T04:26:11;11.80;;;9.98;;
56122;SDS011;42426;46.104;19.656;2023-04-29T04:28:37;15.10;;;10.45;;
56122;SDS011;42426;46.104;19.656;2023-04-29T04:31:03;17.23;;;11.18;;
56122;SDS011;42426;46.104;19.656;2023-04-29T04:33:29;16.85;;;11.95;;
56122;SDS011;42426;46.104;19.656;2023-04-29T04:35:56;21.50;;;12.15;;
56122;SDS011;42426;46.104;19.656;2023-04-29T04:38:22;18.77;;;12.93;;
56122;SDS011;42426;46.104;19.656;2023-04-29T04:40:49;20.50;;;12.05;;
56122;SDS011;42426;46.104;19.656;2023-04-29T04:43:15;20.67;;;12.18;;
56122;SDS011;42426;46.104;19.656;2023-04-29T04:45:42;21.67;;;10.43;;
56122;SDS011;42426;46.104;19.656;2023-04-29T04:48:08;16.45;;;10.85;;
56122;SDS011;42426;46.104;19.656;2023-04-29T04:50:34;13.80;;;9.50;;
56122;SDS011;42426;46.104;19.656;2023-04-29T04:53:00;18.75;;;9.98;;
56122;SDS011;42426;46.104;19.656;2023-04-29T04:55:27;13.07;;;9.02;;
56122;SDS011;42426;46.104;19.656;2023-04-29T04:57:53;13.90;;;8.57;;
56122;SDS011;42426;46.104;19.656;2023-04-29T05:00:19;12.13;;;8.25;;
56122;SDS011;42426;46.104;19.656;2023-04-29T05:02:45;14.07;;;9.02;;
56122;SDS011;42426;46.104;19.656;2023-04-29T05:05:12;13.68;;;8.23;;
56122;SDS011;42426;46.104;19.656;2023-04-29T05:07:38;13.38;;;8.85;;
56122;SDS011;42426;46.104;19.656;2023-04-29T05:10:04;13.43;;;8.43;;
56122;SDS011;42426;46.104;19.656;2023-04-29T05:12:32;11.13;;;8.35;;
56122;SDS011;42426;46.104;19.656;2023-04-29T05:15:04;14.65;;;8.10;;
56122;SDS011;42426;46.104;19.656;2023-04-29T05:17:30;10.68;;;7.93;;
56122;SDS011;42426;46.104;19.656;2023-04-29T05:19:58;12.10;;;7.82;;
56122;SDS011;42426;46.104;19.656;2023-04-29T05:22:24;13.68;;;8.35;;
56122;SDS011;42426;46.104;19.656;2023-04-29T05:24:50;16.00;;;8.77;;
56122;SDS011;42426;46.104;19.656;2023-04-29T05:27:18;16.52;;;8.85;;
56122;SDS011;42426;46.104;19.656;2023-04-29T05:29:45;11.68;;;8.00;;
56122;SDS011;42426;46.104;19.656;2023-04-29T05:32:11;19.67;;;9.45;;
56122;SDS011;42426;46.104;19.656;2023-04-29T05:34:37;13.68;;;8.57;;
56122;SDS011;42426;46.104;19.656;2023-04-29T05:37:03;12.15;;;8.15;;
56122;SDS011;42426;46.104;19.656;2023-04-29T05:39:32;12.13;;;7.72;;
56122;SDS011;42426;46.104;19.656;2023-04-29T05:42:01;15.07;;;9.52;;
56122;SDS011;42426;46.104;19.656;2023-04-29T05:44:28;10.90;;;8.40;;
56122;SDS011;42426;46.104;19.656;2023-04-29T05:46:54;11.65;;;8.00;;
56122;SDS011;42426;46.104;19.656;2023-04-29T05:49:20;10.90;;;7.53;;
56122;SDS011;42426;46.104;19.656;2023-04-29T05:51:46;13.52;;;8.20;;
56122;SDS011;42426;46.104;19.656;2023-04-29T05:54:13;12.32;;;9.55;;
56122;SDS011;42426;46.104;19.656;2023-04-29T05:56:39;12.13;;;8.10;;
56122;SDS011;42426;46.104;19.656;2023-04-29T05:59:06;12.73;;;7.57;;
56122;SDS011;42426;46.104;19.656;2023-04-29T06:01:32;13.18;;;8.00;;
56122;SDS011;42426;46.104;19.656;2023-04-29T06:03:58;14.27;;;9.18;;
56122;SDS011;42426;46.104;19.656;2023-04-29T06:06:24;11.80;;;8.20;;
56122;SDS011;42426;46.104;19.656;2023-04-29T06:11:54;11.05;;;8.05;;
56122;SDS011;42426;46.104;19.656;2023-04-29T06:14:21;12.50;;;7.57;;
56122;SDS011;42426;46.104;19.656;2023-04-29T06:16:48;12.18;;;7.82;;
56122;SDS011;42426;46.104;19.656;2023-04-29T06:19:15;13.52;;;8.68;;
56122;SDS011;42426;46.104;19.656;2023-04-29T06:21:50;15.35;;;8.85;;
56122;SDS011;42426;46.104;19.656;2023-04-29T06:24:16;12.98;;;7.88;;
56122;SDS011;42426;46.104;19.656;2023-04-29T06:26:42;9.88;;;8.05;;
56122;SDS011;42426;46.104;19.656;2023-04-29T06:29:08;13.45;;;7.53;;
56122;SDS011;42426;46.104;19.656;2023-04-29T06:31:34;15.88;;;8.05;;
56122;SDS011;42426;46.104;19.656;2023-04-29T06:34:00;18.13;;;8.88;;
56122;SDS011;42426;46.104;19.656;2023-04-29T06:36:26;11.57;;;7.80;;
56122;SDS011;42426;46.104;19.656;2023-04-29T06:38:52;10.00;;;7.60;;
56122;SDS011;42426;46.104;19.656;2023-04-29T06:41:18;13.75;;;8.10;;
56122;SDS011;42426;46.104;19.656;2023-04-29T06:52:54;8.85;;;6.80;;
56122;SDS011;42426;46.104;19.656;2023-04-29T06:58:24;14.95;;;7.78;;
56122;SDS011;42426;46.104;19.656;2023-04-29T07:03:53;11.60;;;7.43;;
56122;SDS011;42426;46.104;19.656;2023-04-29T07:09:24;12.15;;;6.97;;
56122;SDS011;42426;46.104;19.656;2023-04-29T07:24:12;19.25;;;10.73;;
56122;SDS011;42426;46.104;19.656;2023-04-29T07:30:00;10.80;;;7.25;;
56122;SDS011;42426;46.104;19.656;2023-04-29T07:35:48;9.38;;;5.88;;
56122;SDS011;42426;46.104;19.656;2023-04-29T07:41:36;6.68;;;5.57;;
56122;SDS011;42426;46.104;19.656;2023-04-29T07:47:23;9.82;;;5.47;;
56122;SDS011;42426;46.104;19.656;2023-04-29T07:53:10;9.15;;;5.45;;
56122;SDS011;42426;46.104;19.656;2023-04-29T07:58:31;9.82;;;5.38;;
56122;SDS011;42426;46.104;19.656;2023-04-29T08:01:03;9.73;;;5.47;;
56122;SDS011;42426;46.104;19.656;2023-04-29T08:03:33;13.32;;;6.15;;
56122;SDS011;42426;46.104;19.656;2023-04-29T08:06:02;10.15;;;5.63;;
56122;SDS011;42426;46.104;19.656;2023-04-29T08:08:29;12.95;;;5.38;;
56122;SDS011;42426;46.104;19.656;2023-04-29T08:10:55;12.20;;;5.70;;
56122;SDS011;42426;46.104;19.656;2023-04-29T08:13:21;11.63;;;5.20;;
56122;SDS011;42426;46.104;19.656;2023-04-29T08:15:47;8.15;;;5.40;;
56122;SDS011;42426;46.104;19.656;2023-04-29T08:18:18;10.95;;;5.78;;
56122;SDS011;42426;46.104;19.656;2023-04-29T08:20:45;8.43;;;5.30;;
56122;SDS011;42426;46.104;19.656;2023-04-29T08:23:13;9.80;;;5.63;;
56122;SDS011;42426;46.104;19.656;2023-04-29T08:25:42;12.23;;;5.45;;
56122;SDS011;42426;46.104;19.656;2023-04-29T08:28:08;13.23;;;6.28;;
56122;SDS011;42426;46.104;19.656;2023-04-29T08:30:38;9.63;;;6.22;;
56122;SDS011;42426;46.104;19.656;2023-04-29T08:33:06;9.15;;;5.72;;
56122;SDS011;42426;46.104;19.656;2023-04-29T08:35:32;6.78;;;4.53;;
56122;SDS011;42426;46.104;19.656;2023-04-29T08:37:59;7.50;;;5.25;;
56122;SDS011;42426;46.104;19.656;2023-04-29T08:40:25;7.97;;;5.00;;
56122;SDS011;42426;46.104;19.656;2023-04-29T08:42:50;7.65;;;4.60;;
56122;SDS011;42426;46.104;19.656;2023-04-29T08:45:18;8.55;;;5.15;;
56122;SDS011;42426;46.104;19.656;2023-04-29T08:47:47;10.82;;;5.10;;
56122;SDS011;42426;46.104;19.656;2023-04-29T08:50:13;6.57;;;5.45;;
56122;SDS011;42426;46.104;19.656;2023-04-29T08:52:39;12.60;;;5.47;;
56122;SDS011;42426;46.104;19.656;2023-04-29T08:55:05;8.18;;;5.07;;
56122;SDS011;42426;46.104;19.656;2023-04-29T08:57:34;9.63;;;4.82;;
56122;SDS011;42426;46.104;19.656;2023-04-29T09:00:05;6.38;;;4.50;;
56122;SDS011;42426;46.104;19.656;2023-04-29T09:02:32;15.98;;;4.97;;
56122;SDS011;42426;46.104;19.656;2023-04-29T09:05:09;11.52;;;4.97;;
56122;SDS011;42426;46.104;19.656;2023-04-29T09:07:40;11.20;;;4.63;;
56122;SDS011;42426;46.104;19.656;2023-04-29T09:10:06;5.63;;;4.88;;
56122;SDS011;42426;46.104;19.656;2023-04-29T09:12:33;6.10;;;4.53;;
56122;SDS011;42426;46.104;19.656;2023-04-29T09:15:00;8.15;;;4.88;;
56122;SDS011;42426;46.104;19.656;2023-04-29T09:17:39;9.43;;;5.63;;
56122;SDS011;42426;46.104;19.656;2023-04-29T09:22:56;8.95;;;4.80;;
56122;SDS011;42426;46.104;19.656;2023-04-29T09:25:23;6.63;;;4.85;;
56122;SDS011;42426;46.104;19.656;2023-04-29T09:27:51;9.70;;;5.78;;
56122;SDS011;42426;46.104;19.656;2023-04-29T09:30:17;8.02;;;4.90;;
56122;SDS011;42426;46.104;19.656;2023-04-29T09:32:44;5.25;;;4.55;;
56122;SDS011;42426;46.104;19.656;2023-04-29T09:35:24;9.27;;;4.68;;
56122;SDS011;42426;46.104;19.656;2023-04-29T09:37:52;5.93;;;4.25;;
56122;SDS011;42426;46.104;19.656;2023-04-29T09:40:28;6.22;;;4.85;;
56122;SDS011;42426;46.104;19.656;2023-04-29T09:42:58;13.13;;;5.18;;
56122;SDS011;42426;46.104;19.656;2023-04-29T09:45:57;7.97;;;4.63;;
56122;SDS011;42426;46.104;19.656;2023-04-29T09:48:16;6.35;;;5.03;;
56122;SDS011;42426;46.104;19.656;2023-04-29T09:50:43;9.27;;;5.00;;
56122;SDS011;42426;46.104;19.656;2023-04-29T09:53:29;6.22;;;5.22;;
56122;SDS011;42426;46.104;19.656;2023-04-29T09:56:00;5.85;;;4.60;;
56122;SDS011;42426;46.104;19.656;2023-04-29T09:58:27;6.05;;;4.55;;
56122;SDS011;42426;46.104;19.656;2023-04-29T10:01:05;13.23;;;5.50;;
56122;SDS011;42426;46.104;19.656;2023-04-29T10:03:32;6.43;;;4.68;;
56122;SDS011;42426;46.104;19.656;2023-04-29T10:06:06;6.15;;;4.30;;
56122;SDS011;42426;46.104;19.656;2023-04-29T10:08:33;8.00;;;4.57;;
56122;SDS011;42426;46.104;19.656;2023-04-29T10:11:00;7.63;;;5.10;;
56122;SDS011;42426;46.104;19.656;2023-04-29T10:13:27;6.07;;;4.10;;
56122;SDS011;42426;46.104;19.656;2023-04-29T10:16:44;5.18;;;4.20;;
56122;SDS011;42426;46.104;19.656;2023-04-29T10:18:40;8.25;;;5.03;;
56122;SDS011;42426;46.104;19.656;2023-04-29T10:21:13;7.05;;;4.47;;
56122;SDS011;42426;46.104;19.656;2023-04-29T10:23:40;8.25;;;4.47;;
56122;SDS011;42426;46.104;19.656;2023-04-29T10:26:09;6.85;;;4.55;;
56122;SDS011;42426;46.104;19.656;2023-04-29T10:28:37;18.33;;;5.95;;
56122;SDS011;42426;46.104;19.656;2023-04-29T10:31:06;8.73;;;5.45;;
56122;SDS011;42426;46.104;19.656;2023-04-29T10:33:33;7.28;;;4.97;;
56122;SDS011;42426;46.104;19.656;2023-04-29T10:36:01;9.70;;;5.57;;
56122;SDS011;42426;46.104;19.656;2023-04-29T10:38:30;9.40;;;4.93;;
56122;SDS011;42426;46.104;19.656;2023-04-29T10:41:01;9.90;;;4.90;;
56122;SDS011;42426;46.104;19.656;2023-04-29T10:43:32;8.57;;;4.90;;
56122;SDS011;42426;46.104;19.656;2023-04-29T10:49:00;8.52;;;4.45;;
56122;SDS011;42426;46.104;19.656;2023-04-29T10:54:00;9.80;;;4.80;;
56122;SDS011;42426;46.104;19.656;2023-04-29T10:56:50;7.03;;;4.63;;
56122;SDS011;42426;46.104;19.656;2023-04-29T10:59:22;7.47;;;4.70;;
56122;SDS011;42426;46.104;19.656;2023-04-29T11:02:08;8.75;;;5.32;;
56122;SDS011;42426;46.104;19.656;2023-04-29T11:05:04;9.40;;;5.95;;
56122;SDS011;42426;46.104;19.656;2023-04-29T11:07:33;7.53;;;4.65;;
56122;SDS011;42426;46.104;19.656;2023-04-29T11:10:00;15.48;;;5.15;;
56122;SDS011;42426;46.104;19.656;2023-04-29T11:12:27;10.48;;;5.10;;
56122;SDS011;42426;46.104;19.656;2023-04-29T11:14:53;7.82;;;5.15;;
56122;SDS011;42426;46.104;19.656;2023-04-29T11:17:27;6.68;;;5.25;;
56122;SDS011;42426;46.104;19.656;2023-04-29T11:22:26;7.22;;;5.30;;
56122;SDS011;42426;46.104;19.656;2023-04-29T11:24:58;12.32;;;4.70;;
56122;SDS011;42426;46.104;19.656;2023-04-29T11:27:28;6.35;;;4.28;;
56122;SDS011;42426;46.104;19.656;2023-04-29T11:29:56;7.18;;;4.40;;
56122;SDS011;42426;46.104;19.656;2023-04-29T11:32:26;5.45;;;4.05;;
56122;SDS011;42426;46.104;19.656;2023-04-29T11:34:53;6.00;;;5.35;;
56122;SDS011;42426;46.104;19.656;2023-04-29T11:37:23;6.32;;;4.45;;
56122;SDS011;42426;46.104;19.656;2023-04-29T11:39:56;5.43;;;4.50;;
56122;SDS011;42426;46.104;19.656;2023-04-29T11:42:25;5.78;;;4.85;;
56122;SDS011;42426;46.104;19.656;2023-04-29T11:44:51;6.75;;;4.55;;
56122;SDS011;42426;46.104;19.656;2023-04-29T11:47:20;6.25;;;4.90;;
56122;SDS011;42426;46.104;19.656;2023-04-29T11:50:06;6.88;;;4.40;;
56122;SDS011;42426;46.104;19.656;2023-04-29T11:52:35;8.23;;;5.32;;
56122;SDS011;42426;46.104;19.656;2023-04-29T11:55:02;5.65;;;4.97;;
56122;SDS011;42426;46.104;19.656;2023-04-29T12:00:50;6.80;;;4.50;;
56122;SDS011;42426;46.104;19.656;2023-04-29T12:06:38;5.60;;;4.85;;
56122;SDS011;42426;46.104;19.656;2023-04-29T12:12:28;9.40;;;4.57;;
56122;SDS011;42426;46.104;19.656;2023-04-29T12:14:55;8.65;;;4.95;;
56122;SDS011;42426;46.104;19.656;2023-04-29T12:17:21;5.60;;;4.65;;
56122;SDS011;42426;46.104;19.656;2023-04-29T12:19:48;6.32;;;4.70;;
56122;SDS011;42426;46.104;19.656;2023-04-29T12:22:15;9.85;;;5.35;;
56122;SDS011;42426;46.104;19.656;2023-04-29T12:24:41;11.88;;;5.57;;
56122;SDS011;42426;46.104;19.656;2023-04-29T12:27:07;7.00;;;5.30;;
56122;SDS011;42426;46.104;19.656;2023-04-29T12:29:37;7.30;;;4.68;;
56122;SDS011;42426;46.104;19.656;2023-04-29T12:32:06;7.15;;;5.18;;
56122;SDS011;42426;46.104;19.656;2023-04-29T12:34:38;6.63;;;4.68;;
56122;SDS011;42426;46.104;19.656;2023-04-29T12:37:03;8.00;;;4.90;;
56122;SDS011;42426;46.104;19.656;2023-04-29T12:39:29;10.00;;;5.28;;
56122;SDS011;42426;46.104;19.656;2023-04-29T12:42:00;8.75;;;5.85;;
56122;SDS011;42426;46.104;19.656;2023-04-29T12:44:33;7.95;;;5.47;;
56122;SDS011;42426;46.104;19.656;2023-04-29T12:47:09;6.38;;;5.43;;
56122;SDS011;42426;46.104;19.656;2023-04-29T12:49:37;6.07;;;5.03;;
56122;SDS011;42426;46.104;19.656;2023-04-29T12:52:06;6.82;;;5.43;;
56122;SDS011;42426;46.104;19.656;2023-04-29T12:54:37;6.03;;;4.70;;
56122;SDS011;42426;46.104;19.656;2023-04-29T12:57:07;7.63;;;5.25;;
56122;SDS011;42426;46.104;19.656;2023-04-29T12:59:33;9.38;;;4.82;;
56122;SDS011;42426;46.104;19.656;2023-04-29T13:02:00;7.15;;;4.95;;
56122;SDS011;42426;46.104;19.656;2023-04-29T13:04:26;8.65;;;5.20;;
56122;SDS011;42426;46.104;19.656;2023-04-29T13:06:52;6.82;;;4.72;;
56122;SDS011;42426;46.104;19.656;2023-04-29T13:09:24;5.30;;;4.72;;
56122;SDS011;42426;46.104;19.656;2023-04-29T13:11:50;8.98;;;5.25;;
56122;SDS011;42426;46.104;19.656;2023-04-29T13:14:16;7.47;;;4.50;;
56122;SDS011;42426;46.104;19.656;2023-04-29T13:16:43;7.57;;;5.00;;
56122;SDS011;42426;46.104;19.656;2023-04-29T13:19:09;10.00;;;4.75;;
56122;SDS011;42426;46.104;19.656;2023-04-29T13:21:35;6.75;;;4.97;;
56122;SDS011;42426;46.104;19.656;2023-04-29T13:24:02;6.30;;;5.22;;
56122;SDS011;42426;46.104;19.656;2023-04-29T13:26:28;5.80;;;4.75;;
56122;SDS011;42426;46.104;19.656;2023-04-29T13:28:54;9.45;;;4.88;;
56122;SDS011;42426;46.104;19.656;2023-04-29T13:31:21;7.95;;;5.10;;
56122;SDS011;42426;46.104;19.656;2023-04-29T13:33:46;12.73;;;5.28;;
56122;SDS011;42426;46.104;19.656;2023-04-29T13:36:12;10.57;;;5.55;;
56122;SDS011;42426;46.104;19.656;2023-04-29T13:38:39;6.07;;;5.18;;
56122;SDS011;42426;46.104;19.656;2023-04-29T13:41:05;6.90;;;5.55;;
56122;SDS011;42426;46.104;19.656;2023-04-29T13:43:30;8.85;;;6.20;;
56122;SDS011;42426;46.104;19.656;2023-04-29T13:45:56;8.95;;;6.05;;
56122;SDS011;42426;46.104;19.656;2023-04-29T13:48:22;7.93;;;5.63;;
56122;SDS011;42426;46.104;19.656;2023-04-29T13:50:49;5.63;;;4.80;;
56122;SDS011;42426;46.104;19.656;2023-04-29T13:53:15;8.20;;;5.40;;
56122;SDS011;42426;46.104;19.656;2023-04-29T13:55:41;7.47;;;5.05;;
56122;SDS011;42426;46.104;19.656;2023-04-29T13:58:07;5.40;;;4.82;;
56122;SDS011;42426;46.104;19.656;2023-04-29T14:00:33;8.20;;;5.22;;
56122;SDS011;42426;46.104;19.656;2023-04-29T14:02:58;5.65;;;5.05;;
56122;SDS011;42426;46.104;19.656;2023-04-29T14:05:25;5.38;;;4.75;;
56122;SDS011;42426;46.104;19.656;2023-04-29T14:07:51;7.20;;;5.78;;
56122;SDS011;42426;46.104;19.656;2023-04-29T14:10:16;5.57;;;4.95;;
56122;SDS011;42426;46.104;19.656;2023-04-29T14:12:42;8.52;;;5.35;;
56122;SDS011;42426;46.104;19.656;2023-04-29T14:15:08;7.63;;;4.80;;
56122;SDS011;42426;46.104;19.656;2023-04-29T14:17:34;10.88;;;5.60;;
56122;SDS011;42426;46.104;19.656;2023-04-29T14:20:01;5.97;;;4.97;;
56122;SDS011;42426;46.104;19.656;2023-04-29T14:22:28;5.88;;;5.03;;
56122;SDS011;42426;46.104;19.656;2023-04-29T14:24:54;5.60;;;4.93;;
56122;SDS011;42426;46.104;19.656;2023-04-29T14:27:20;4.95;;;4.38;;
56122;SDS011;42426;46.104;19.656;2023-04-29T14:29:45;5.53;;;4.90;;
56122;SDS011;42426;46.104;19.656;2023-04-29T14:32:12;5.78;;;5.18;;
56122;SDS011;42426;46.104;19.656;2023-04-29T14:34:37;6.13;;;5.20;;
56122;SDS011;42426;46.104;19.656;2023-04-29T14:37:03;9.23;;;4.93;;
56122;SDS011;42426;46.104;19.656;2023-04-29T14:39:29;8.48;;;4.97;;
56122;SDS011;42426;46.104;19.656;2023-04-29T14:41:55;8.60;;;5.70;;
56122;SDS011;42426;46.104;19.656;2023-04-29T14:44:20;6.30;;;5.03;;
56122;SDS011;42426;46.104;19.656;2023-04-29T14:46:46;7.03;;;4.97;;
56122;SDS011;42426;46.104;19.656;2023-04-29T14:49:12;7.43;;;5.25;;
56122;SDS011;42426;46.104;19.656;2023-04-29T14:51:38;5.32;;;4.82;;
56122;SDS011;42426;46.104;19.656;2023-04-29T14:54:04;5.72;;;5.13;;
56122;SDS011;42426;46.104;19.656;2023-04-29T14:56:30;7.28;;;5.22;;
56122;SDS011;42426;46.104;19.656;2023-04-29T14:58:55;10.65;;;7.78;;
56122;SDS011;42426;46.104;19.656;2023-04-29T15:01:22;8.82;;;6.47;;
56122;SDS011;42426;46.104;19.656;2023-04-29T15:03:48;9.20;;;5.90;;
56122;SDS011;42426;46.104;19.656;2023-04-29T15:06:14;6.25;;;5.30;;
56122;SDS011;42426;46.104;19.656;2023-04-29T15:08:39;9.57;;;6.60;;
56122;SDS011;42426;46.104;19.656;2023-04-29T15:11:05;7.15;;;5.85;;
56122;SDS011;42426;46.104;19.656;2023-04-29T15:13:31;10.63;;;5.40;;
56122;SDS011;42426;46.104;19.656;2023-04-29T15:15:56;9.35;;;6.03;;
56122;SDS011;42426;46.104;19.656;2023-04-29T15:18:22;6.25;;;5.32;;
56122;SDS011;42426;46.104;19.656;2023-04-29T15:20:50;8.40;;;5.47;;
56122;SDS011;42426;46.104;19.656;2023-04-29T15:23:19;8.00;;;5.22;;
56122;SDS011;42426;46.104;19.656;2023-04-29T15:25:44;6.65;;;5.32;;
56122;SDS011;42426;46.104;19.656;2023-04-29T15:28:10;8.63;;;5.38;;
56122;SDS011;42426;46.104;19.656;2023-04-29T15:30:36;8.80;;;6.50;;
56122;SDS011;42426;46.104;19.656;2023-04-29T15:33:02;9.13;;;6.85;;
56122;SDS011;42426;46.104;19.656;2023-04-29T15:35:28;11.88;;;8.13;;
56122;SDS011;42426;46.104;19.656;2023-04-29T15:37:55;10.00;;;5.93;;
56122;SDS011;42426;46.104;19.656;2023-04-29T15:40:23;8.40;;;5.55;;
56122;SDS011;42426;46.104;19.656;2023-04-29T15:42:48;7.70;;;5.55;;
56122;SDS011;42426;46.104;19.656;2023-04-29T15:45:14;5.88;;;5.28;;
56122;SDS011;42426;46.104;19.656;2023-04-29T15:47:41;6.00;;;5.40;;
56122;SDS011;42426;46.104;19.656;2023-04-29T15:50:06;6.78;;;5.25;;
56122;SDS011;42426;46.104;19.656;2023-04-29T15:52:35;12.57;;;6.32;;
56122;SDS011;42426;46.104;19.656;2023-04-29T15:55:01;10.35;;;5.50;;